Time;durP1;ratioP1;P1;durP2;ratioP2;P2;SDS_P1;SDS_P2;PMS_P1;PMS_P2;Temp;Humidity;BMP_temperature;BMP_pressure;BME280_temperature;BME280_humidity;BME280_pressure;Samples;Min_cycle;Max_cycle;Signal;HPM_P1;HPM_P2
2023/05/24 00:02:22;;;;;;;8.80;2.22;;;;;;;8.25;100.00;102124.88;4978529;28;20030;-79
2023/05/24 00:04:48;;;;;;;19.63;3.45;;;;;;;8.25;100.00;102122.16;4979632;28;20059;-79
2023/05/24 00:07:15;;;;;;;11.40;2.53;;;;;;;8.26;100.00;102123.03;4965375;28;20033;-79
2023/05/24 00:20:01;;;;;;;8.98;1.92;;;;;;;8.12;100.00;102123.72;4956994;28;20031;-78
2023/05/24 00:22:27;;;;;;;13.45;2.35;;;;;;;8.02;100.00;102112.34;4927097;29;20047;-78
2023/05/24 00:24:52;;;;;;;12.32;2.50;;;;;;;8.01;100.00;102102.41;4942146;29;20069;-79
2023/05/24 00:27:17;;;;;;;8.93;2.13;;;;;;;7.96;100.00;102100.88;4915032;29;20034;-78
2023/05/24 00:29:43;;;;;;;13.07;2.83;;;;;;;8.01;100.00;102105.13;4958612;28;20070;-78
2023/05/24 00:32:08;;;;;;;19.30;2.83;;;;;;;7.89;100.00;102103.00;4910832;29;20023;-78
2023/05/24 00:34:34;;;;;;;14.80;2.90;;;;;;;7.76;100.00;102097.25;4938817;29;20034;-79
2023/05/24 00:36:59;;;;;;;12.00;2.80;;;;;;;7.85;100.00;102102.25;4924336;29;20044;-78
2023/05/24 00:39:25;;;;;;;12.75;2.88;;;;;;;7.71;100.00;102110.22;4924185;29;20051;-77
2023/05/24 00:41:51;;;;;;;10.05;2.63;;;;;;;7.65;100.00;102102.31;4943373;28;20116;-78
2023/05/24 00:44:16;;;;;;;9.35;2.90;;;;;;;7.62;100.00;102099.72;4918648;29;20047;-78
2023/05/24 00:46:43;;;;;;;8.95;2.20;;;;;;;7.54;100.00;102094.63;4927795;29;20046;-78
2023/05/24 00:49:09;;;;;;;12.48;2.88;;;;;;;7.69;100.00;102099.38;4919044;29;20047;-79
2023/05/24 00:51:35;;;;;;;15.77;2.15;;;;;;;7.65;100.00;102094.13;4917267;29;20027;-78
2023/05/24 00:54:01;;;;;;;15.50;2.63;;;;;;;7.52;100.00;102089.25;4906022;29;20111;-78
2023/05/24 00:56:27;;;;;;;15.75;2.58;;;;;;;7.48;100.00;102090.34;4918257;29;20028;-78
2023/05/24 00:58:54;;;;;;;10.43;2.75;;;;;;;7.45;100.00;102090.50;4958164;29;20055;-78
2023/05/24 01:01:24;;;;;;;11.70;2.47;;;;;;;7.42;100.00;102093.34;4933121;29;20046;-79
2023/05/24 01:03:52;;;;;;;18.02;3.03;;;;;;;7.35;100.00;102090.03;4926692;29;20035;-78
2023/05/24 01:06:18;;;;;;;12.02;2.42;;;;;;;7.38;100.00;102101.72;4905926;29;20079;-79
2023/05/24 01:09:16;;;;;;;10.05;2.22;;;;;;;7.32;100.00;102094.75;4933105;29;20503;-79
2023/05/24 01:12:03;;;;;;;10.10;2.70;;;;;;;7.24;100.00;102081.47;4925592;29;20066;-79
2023/05/24 01:14:47;;;;;;;19.23;3.13;;;;;;;7.27;100.00;102081.31;4905659;29;20035;-78
2023/05/24 01:17:30;;;;;;;9.45;2.60;;;;;;;7.38;100.00;102090.84;4918863;29;20031;-79
2023/05/24 01:20:05;;;;;;;14.88;2.70;;;;;;;7.46;100.00;102081.38;4878757;29;1124155;-79
2023/05/24 01:23:02;;;;;;;16.50;3.38;;;;;;;7.45;100.00;102073.28;4934754;29;20059;-79
2023/05/24 01:25:53;;;;;;;11.88;2.55;;;;;;;7.45;100.00;102079.59;4922987;29;20098;-78
2023/05/24 01:28:19;;;;;;;22.50;2.80;;;;;;;7.38;100.00;102085.38;4922255;29;20067;-78
2023/05/24 01:30:46;;;;;;;14.65;2.83;;;;;;;7.25;100.00;102080.50;4922540;29;20035;-78
2023/05/24 01:33:11;;;;;;;18.73;3.00;;;;;;;7.24;100.00;102077.84;4896172;29;20507;-78
2023/05/24 01:35:40;;;;;;;9.15;2.55;;;;;;;7.44;100.00;102085.97;4912171;29;20063;-78
2023/05/24 01:38:06;;;;;;;18.13;2.97;;;;;;;7.53;100.00;102080.13;4913932;29;20040;-78
2023/05/24 01:40:32;;;;;;;11.90;2.55;;;;;;;7.56;100.00;102081.84;4933535;29;20073;-79
2023/05/24 01:43:10;;;;;;;14.10;2.97;;;;;;;7.43;100.00;102081.50;4910010;29;20102;-79
2023/05/24 01:45:43;;;;;;;16.95;3.20;;;;;;;7.32;100.00;102087.44;4942849;29;20042;-79
2023/05/24 01:48:23;;;;;;;11.88;3.00;;;;;;;7.18;100.00;102081.72;4919658;29;20149;-79
2023/05/24 01:50:56;;;;;;;16.50;2.70;;;;;;;7.00;100.00;102083.44;4901603;29;20125;-79
2023/05/24 01:53:25;;;;;;;13.80;2.72;;;;;;;7.09;100.00;102074.00;4914551;29;20483;-80
2023/05/24 01:55:55;;;;;;;16.20;3.15;;;;;;;7.08;100.00;102070.34;4892895;29;20043;-79
2023/05/24 01:58:22;;;;;;;11.48;3.03;;;;;;;7.17;100.00;102069.09;4917788;29;20499;-80
2023/05/24 02:00:49;;;;;;;9.25;2.67;;;;;;;7.09;100.00;102082.16;4906774;29;20062;-80
2023/05/24 02:03:15;;;;;;;12.50;2.63;;;;;;;7.08;100.00;102074.94;4906627;29;20042;-80
2023/05/24 02:05:43;;;;;;;10.02;2.95;;;;;;;7.04;100.00;102074.19;4905293;29;20122;-80
2023/05/24 02:08:08;;;;;;;9.93;2.70;;;;;;;7.05;100.00;102077.78;4906037;29;20048;-80
2023/05/24 02:10:37;;;;;;;8.95;2.85;;;;;;;7.07;100.00;102078.63;4894353;29;20038;-81
2023/05/24 02:13:02;;;;;;;13.20;3.20;;;;;;;6.98;100.00;102071.72;4889986;29;20036;-80
2023/05/24 02:15:29;;;;;;;17.23;2.83;;;;;;;6.98;100.00;102078.09;4913892;29;20555;-80
2023/05/24 02:17:54;;;;;;;10.57;2.70;;;;;;;7.02;100.00;102073.38;4880969;29;20033;-80
2023/05/24 02:20:21;;;;;;;17.80;2.65;;;;;;;6.85;100.00;102073.22;4896842;29;20051;-80
2023/05/24 02:22:47;;;;;;;14.43;3.42;;;;;;;6.83;100.00;102072.41;4924371;29;20040;-80
2023/05/24 02:25:13;;;;;;;13.07;2.88;;;;;;;6.80;100.00;102071.63;4924184;29;20040;-79
2023/05/24 02:27:38;;;;;;;9.43;2.47;;;;;;;6.84;100.00;102074.16;4929824;29;20054;-80
2023/05/24 02:30:05;;;;;;;14.27;3.33;;;;;;;6.86;100.00;102070.44;4903383;29;20048;-79
2023/05/24 02:32:31;;;;;;;16.50;3.15;;;;;;;6.76;100.00;102079.97;4927916;29;20042;-80
2023/05/24 02:34:58;;;;;;;11.65;2.85;;;;;;;6.77;100.00;102077.19;4888816;29;20031;-80
2023/05/24 02:37:24;;;;;;;14.52;3.33;;;;;;;6.72;100.00;102076.50;4937389;29;20391;-79
2023/05/24 02:39:50;;;;;;;14.45;3.30;;;;;;;6.76;100.00;102061.78;4909533;29;20055;-80
2023/05/24 02:42:15;;;;;;;11.95;3.30;;;;;;;6.76;100.00;102077.25;4918387;29;20040;-80
2023/05/24 02:44:41;;;;;;;11.27;3.47;;;;;;;6.72;100.00;102068.34;4903421;29;20110;-80
2023/05/24 02:47:07;;;;;;;17.88;3.92;;;;;;;6.72;100.00;102073.78;4907614;29;20050;-78
2023/05/24 02:49:32;;;;;;;14.23;3.78;;;;;;;6.74;100.00;102077.31;4911884;29;20571;-78
2023/05/24 02:51:58;;;;;;;13.52;3.63;;;;;;;6.69;100.00;102075.72;4907238;29;20491;-79
2023/05/24 02:54:24;;;;;;;10.15;3.50;;;;;;;6.68;100.00;102072.13;4910991;29;20062;-79
2023/05/24 02:56:50;;;;;;;14.95;3.58;;;;;;;6.79;100.00;102074.41;4902171;29;20032;-78
2023/05/24 02:59:16;;;;;;;7.82;3.10;;;;;;;6.81;100.00;102076.09;4924109;29;20107;-79
2023/05/24 03:01:41;;;;;;;23.02;4.03;;;;;;;6.67;100.00;102080.34;4909460;29;20035;-79
2023/05/24 03:04:07;;;;;;;10.48;3.30;;;;;;;6.71;100.00;102082.00;4900237;29;20032;-78
2023/05/24 03:06:32;;;;;;;14.85;3.47;;;;;;;6.76;100.00;102069.97;4904828;29;20123;-78
2023/05/24 03:08:58;;;;;;;13.90;3.72;;;;;;;6.72;100.00;102083.75;4903790;29;20044;-78
2023/05/24 03:11:23;;;;;;;17.35;3.35;;;;;;;6.69;100.00;102082.06;4924101;29;20402;-78
2023/05/24 03:13:49;;;;;;;12.30;3.83;;;;;;;6.72;100.00;102081.94;4933614;29;20044;-78
2023/05/24 03:16:15;;;;;;;17.10;3.80;;;;;;;6.70;100.00;102074.78;4920952;29;20122;-80
2023/05/24 03:18:41;;;;;;;12.30;3.60;;;;;;;6.63;100.00;102083.22;4932654;29;20206;-79
2023/05/24 03:21:06;;;;;;;16.45;4.60;;;;;;;6.35;100.00;102049.97;4926626;29;20075;-80
2023/05/24 03:23:32;;;;;;;18.70;5.00;;;;;;;6.43;100.00;102073.19;4922947;29;20122;-80
2023/05/24 03:25:57;;;;;;;9.57;3.63;;;;;;;6.46;100.00;102072.19;4906755;29;20078;-80
2023/05/24 03:28:23;;;;;;;14.40;4.03;;;;;;;6.44;100.00;102076.78;4926598;29;20101;-80
2023/05/24 03:30:48;;;;;;;17.73;3.92;;;;;;;6.37;100.00;102058.94;4929801;29;20055;-79
2023/05/24 03:33:14;;;;;;;12.27;3.90;;;;;;;6.44;100.00;102066.81;4908467;29;20035;-79
2023/05/24 03:35:39;;;;;;;20.33;4.07;;;;;;;6.33;100.00;102057.28;4911332;29;20035;-80
2023/05/24 03:38:05;;;;;;;12.93;3.88;;;;;;;6.46;100.00;102079.44;4903987;29;20036;-80
2023/05/24 03:40:32;;;;;;;13.30;3.47;;;;;;;6.40;100.00;102075.16;4916505;29;20036;-80
2023/05/24 03:42:58;;;;;;;13.60;4.53;;;;;;;6.48;100.00;102080.25;4921301;29;20042;-80
2023/05/24 03:45:24;;;;;;;20.55;4.57;;;;;;;6.39;100.00;102066.09;4925702;29;20035;-79
2023/05/24 03:47:49;;;;;;;11.23;3.90;;;;;;;6.44;100.00;102072.25;4907823;29;20563;-79
2023/05/24 03:50:15;;;;;;;15.60;3.88;;;;;;;6.54;100.00;102077.28;4919021;29;20036;-79
2023/05/24 03:52:41;;;;;;;15.77;4.43;;;;;;;6.63;100.00;102082.34;4883659;29;20040;-81
2023/05/24 03:55:07;;;;;;;14.18;4.18;;;;;;;6.60;100.00;102082.47;4916593;29;20050;-80
2023/05/24 03:57:32;;;;;;;13.02;4.35;;;;;;;6.39;100.00;102052.47;4897305;29;20160;-80
2023/05/24 03:59:59;;;;;;;18.77;3.97;;;;;;;6.63;100.00;102077.75;4902270;29;20043;-80
2023/05/24 04:02:24;;;;;;;18.13;4.20;;;;;;;6.68;100.00;102077.56;4889179;29;20043;-79
2023/05/24 04:04:50;;;;;;;18.83;4.22;;;;;;;6.72;100.00;102072.88;4900662;29;20043;-80
2023/05/24 04:07:15;;;;;;;18.15;4.50;;;;;;;6.64;100.00;102070.50;4897333;29;20043;-81
2023/05/24 04:09:41;;;;;;;18.35;4.88;;;;;;;6.77;100.00;102085.34;4901040;29;20050;-79
2023/05/24 04:12:07;;;;;;;18.83;4.50;;;;;;;6.76;100.00;102080.84;4893191;29;20484;-79
2023/05/24 04:14:33;;;;;;;11.80;3.92;;;;;;;6.73;100.00;102080.97;4916220;29;20123;-79
2023/05/24 04:17:02;;;;;;;15.70;3.85;;;;;;;6.69;100.00;102071.19;4897432;29;20032;-79
2023/05/24 04:19:28;;;;;;;10.63;3.92;;;;;;;6.74;100.00;102085.47;4899282;29;20503;-80
2023/05/24 04:21:54;;;;;;;27.63;5.00;;;;;;;6.85;100.00;102073.22;4881663;29;20095;-81
2023/05/24 04:24:19;;;;;;;17.75;4.40;;;;;;;6.98;100.00;102075.38;4900630;29;20047;-80
2023/05/24 04:26:46;;;;;;;14.65;3.80;;;;;;;6.99;100.00;102068.06;4899128;29;20115;-79
2023/05/24 04:29:13;;;;;;;17.92;4.75;;;;;;;7.15;100.00;102076.44;4902533;29;20037;-78
2023/05/24 04:31:42;;;;;;;22.98;4.82;;;;;;;7.12;100.00;102076.59;4909697;29;20036;-80
2023/05/24 04:34:13;;;;;;;12.20;4.13;;;;;;;7.15;100.00;102079.16;4901919;29;20035;-78
2023/05/24 04:36:38;;;;;;;17.48;4.13;;;;;;;7.22;100.00;102077.06;4909567;29;20032;-79
2023/05/24 04:39:04;;;;;;;14.27;4.15;;;;;;;7.36;100.00;102080.00;4909691;29;20452;-80
2023/05/24 04:41:34;;;;;;;15.25;4.68;;;;;;;7.44;100.00;102085.09;4909863;29;20111;-79
2023/05/24 04:44:00;;;;;;;11.57;4.38;;;;;;;7.50;100.00;102080.25;4909822;29;20040;-79
2023/05/24 04:46:26;;;;;;;18.25;5.47;;;;;;;7.51;100.00;102087.50;4906595;29;20048;-79
2023/05/24 04:48:52;;;;;;;12.15;4.30;;;;;;;7.68;100.00;102089.41;4911915;29;20054;-79
2023/05/24 04:51:20;;;;;;;15.52;4.72;;;;;;;7.71;100.00;102092.00;4896465;29;20032;-79
2023/05/24 04:53:45;;;;;;;23.13;4.90;;;;;;;7.75;100.00;102090.00;4900239;29;20451;-81
2023/05/24 04:56:13;;;;;;;18.95;4.53;;;;;;;7.87;100.00;102091.25;4919529;29;20143;-81
2023/05/24 04:58:39;;;;;;;15.77;4.72;;;;;;;7.91;100.00;102079.25;4904315;29;20039;-81
2023/05/24 05:01:05;;;;;;;16.15;4.78;;;;;;;7.93;100.00;102081.91;4908974;29;20189;-81
2023/05/24 05:03:31;;;;;;;16.83;4.55;;;;;;;8.02;100.00;102086.94;4928026;29;20040;-81
2023/05/24 05:05:56;;;;;;;21.40;5.28;;;;;;;8.21;100.00;102090.50;4918085;29;20045;-81
2023/05/24 05:08:24;;;;;;;12.38;4.78;;;;;;;8.23;100.00;102087.69;4903427;29;20040;-81
2023/05/24 05:10:50;;;;;;;17.25;4.95;;;;;;;8.34;100.00;102101.69;4915328;29;20031;-81
2023/05/24 05:13:15;;;;;;;20.52;4.90;;;;;;;8.45;100.00;102095.75;4889346;29;20042;-81
2023/05/24 05:15:41;;;;;;;14.65;5.07;;;;;;;8.41;100.00;102091.38;4925415;29;20038;-82
2023/05/24 05:18:07;;;;;;;22.00;5.18;;;;;;;8.48;100.00;102103.78;4920115;29;20102;-81
2023/05/24 05:20:32;;;;;;;20.65;5.07;;;;;;;8.41;100.00;102075.00;4903978;29;20444;-81
2023/05/24 05:22:58;;;;;;;17.55;5.57;;;;;;;8.72;100.00;102093.44;4928133;29;20099;-82
2023/05/24 05:25:23;;;;;;;16.63;4.57;;;;;;;8.68;100.00;102082.78;4892101;29;20048;-82
2023/05/24 05:27:49;;;;;;;18.42;4.10;;;;;;;8.94;100.00;102093.22;4921471;29;20035;-83
2023/05/24 05:30:14;;;;;;;19.25;5.60;;;;;;;8.94;100.00;102082.31;4934948;29;20039;-82
2023/05/24 05:32:40;;;;;;;24.95;4.82;;;;;;;9.42;100.00;102087.09;4908677;29;20043;-82
2023/05/24 05:35:06;;;;;;;19.77;4.88;;;;;;;9.52;100.00;102091.94;4908382;29;20066;-81
2023/05/24 05:37:31;;;;;;;22.52;5.03;;;;;;;9.48;100.00;102078.56;4907730;29;20040;-81
2023/05/24 05:39:56;;;;;;;16.33;4.43;;;;;;;9.81;100.00;102088.59;4919333;29;20123;-82
2023/05/24 05:42:22;;;;;;;17.05;4.13;;;;;;;9.93;100.00;102090.63;4901013;28;20110;-81
2023/05/24 05:44:47;;;;;;;16.02;4.45;;;;;;;10.19;100.00;102093.72;4928393;29;20098;-80
2023/05/24 05:47:13;;;;;;;13.23;4.13;;;;;;;10.12;100.00;102068.56;4929227;29;20043;-80
2023/05/24 05:49:38;;;;;;;16.92;3.67;;;;;;;10.18;100.00;102090.09;4926731;29;20044;-80
2023/05/24 05:52:04;;;;;;;17.98;4.18;;;;;;;10.24;100.00;102086.13;4886249;29;20440;-80
2023/05/24 05:54:30;;;;;;;20.85;4.93;;;;;;;10.54;100.00;102096.28;4923046;29;20040;-80
2023/05/24 05:56:56;;;;;;;14.05;3.85;;;;;;;10.88;100.00;102092.41;4906745;29;20036;-80
2023/05/24 05:59:22;;;;;;;25.00;4.05;;;;;;;10.97;100.00;102097.34;4923908;29;20046;-80
2023/05/24 06:01:48;;;;;;;20.40;4.28;;;;;;;11.04;100.00;102103.34;4918860;29;20036;-80
2023/05/24 06:04:14;;;;;;;17.05;4.43;;;;;;;11.44;100.00;102098.09;4920256;29;20463;-81
2023/05/24 06:06:40;;;;;;;22.92;4.35;;;;;;;11.70;100.00;102098.31;4936213;29;20066;-80
2023/05/24 06:09:05;;;;;;;24.48;5.30;;;;;;;12.06;100.00;102097.81;4939495;29;20122;-81
2023/05/24 06:11:31;;;;;;;20.85;3.90;;;;;;;11.97;100.00;102111.28;4930027;29;20023;-81
2023/05/24 06:13:56;;;;;;;18.75;4.05;;;;;;;12.53;100.00;102114.00;4911807;29;20047;-82
2023/05/24 06:16:22;;;;;;;20.38;4.10;;;;;;;12.27;100.00;102111.13;4933310;29;20038;-81
2023/05/24 06:18:48;;;;;;;24.88;4.57;;;;;;;12.71;100.00;102118.28;4894891;29;20115;-79
2023/05/24 06:21:14;;;;;;;18.00;3.80;;;;;;;12.75;100.00;102107.94;4925667;29;20039;-80
2023/05/24 06:23:39;;;;;;;20.00;4.45;;;;;;;12.96;100.00;102108.34;4922728;29;20040;-80
2023/05/24 06:26:08;;;;;;;19.25;4.50;;;;;;;12.99;100.00;102106.25;4897330;29;20404;-80
2023/05/24 06:28:35;;;;;;;13.27;3.80;;;;;;;13.66;100.00;102113.50;4938888;29;20518;-79
2023/05/24 06:31:03;;;;;;;20.85;4.95;;;;;;;14.07;100.00;102123.38;4918561;29;20050;-80
2023/05/24 06:33:31;;;;;;;17.50;3.92;;;;;;;13.53;100.00;102121.75;4887579;29;20040;-80
2023/05/24 06:35:56;;;;;;;17.85;3.63;;;;;;;13.83;100.00;102119.66;4920564;29;20444;-79
2023/05/24 06:38:22;;;;;;;15.05;4.28;;;;;;;13.26;100.00;102120.94;4900955;29;20070;-78
2023/05/24 06:40:47;;;;;;;22.58;4.80;;;;;;;13.15;100.00;102108.81;4899912;29;20050;-79
2023/05/24 06:43:13;;;;;;;16.40;3.47;;;;;;;14.59;100.00;102118.59;4904427;29;20074;-78
2023/05/24 06:45:38;;;;;;;20.30;3.90;;;;;;;15.04;100.00;102118.84;4919270;29;20071;-78
2023/05/24 06:48:04;;;;;;;23.65;4.55;;;;;;;14.27;100.00;102118.25;4906941;29;20090;-78
2023/05/24 06:50:29;;;;;;;10.60;3.38;;;;;;;14.30;100.00;102115.28;4888476;29;20065;-78
2023/05/24 06:52:58;;;;;;;17.73;4.10;;;;;;;14.03;100.00;102120.97;4896873;29;20036;-78
2023/05/24 06:55:23;;;;;;;18.40;4.07;;;;;;;13.93;100.00;102113.34;4935992;29;20103;-77
2023/05/24 06:57:49;;;;;;;18.38;4.38;;;;;;;13.96;100.00;102126.03;4917238;29;20035;-79
2023/05/24 07:00:15;;;;;;;27.13;5.30;;;;;;;14.06;100.00;102126.25;4919534;29;20032;-79
2023/05/24 07:02:40;;;;;;;22.08;4.30;;;;;;;14.08;100.00;102136.13;4903038;29;20459;-79
2023/05/24 07:05:10;;;;;;;12.95;5.03;;;;;;;14.83;100.00;102134.28;4920054;29;20558;-79
2023/05/24 07:07:38;;;;;;;18.75;3.92;;;;;;;15.20;100.00;102131.41;4915003;29;20531;-80
2023/05/24 07:10:06;;;;;;;16.02;4.38;;;;;;;14.60;100.00;102136.91;4890106;29;20063;-79
2023/05/24 07:12:31;;;;;;;18.88;4.28;;;;;;;14.52;100.00;102140.22;4918955;29;20051;-79
2023/05/24 07:14:56;;;;;;;13.55;4.22;;;;;;;14.93;100.00;102127.06;4903683;29;20102;-79
2023/05/24 07:17:22;;;;;;;15.55;3.78;;;;;;;14.24;100.00;102141.41;4899297;29;20380;-78
2023/05/24 07:19:47;;;;;;;23.20;4.43;;;;;;;14.15;100.00;102145.72;4922781;29;20099;-78
2023/05/24 07:22:13;;;;;;;21.35;4.82;;;;;;;13.92;100.00;102132.75;4937083;29;20043;-80
2023/05/24 07:24:38;;;;;;;19.38;4.75;;;;;;;13.96;100.00;102137.06;4936586;29;20032;-79
2023/05/24 07:27:04;;;;;;;13.25;4.32;;;;;;;13.80;100.00;102142.78;4902791;29;20112;-79
2023/05/24 07:29:29;;;;;;;16.52;3.30;;;;;;;13.81;100.00;102149.16;4919326;29;20035;-79
2023/05/24 07:31:56;;;;;;;17.65;4.32;;;;;;;14.02;100.00;102119.19;4919468;29;20398;-79
2023/05/24 07:34:22;;;;;;;18.73;4.20;;;;;;;14.24;100.00;102140.53;4936389;29;20043;-80
2023/05/24 07:36:48;;;;;;;14.38;4.03;;;;;;;15.16;100.00;102141.81;4918658;29;20127;-79
2023/05/24 07:39:15;;;;;;;12.18;3.17;;;;;;;16.41;93.95;102144.75;4936234;29;20110;-79
2023/05/24 07:41:41;;;;;;;15.63;3.40;;;;;;;16.35;95.04;102144.25;4898754;29;20100;-79
2023/05/24 07:44:06;;;;;;;14.13;4.10;;;;;;;17.08;94.00;102139.03;4934753;29;20050;-80
2023/05/24 07:46:32;;;;;;;15.48;3.70;;;;;;;15.80;93.34;102143.25;4934029;29;20426;-80
2023/05/24 07:48:58;;;;;;;15.50;3.47;;;;;;;14.79;100.00;102146.53;4900153;29;20403;-80
2023/05/24 07:51:24;;;;;;;18.75;3.65;;;;;;;14.66;100.00;102144.72;4903480;29;20043;-79
2023/05/24 07:53:49;;;;;;;14.40;4.13;;;;;;;14.70;100.00;102137.09;4914165;29;20045;-79
2023/05/24 07:56:15;;;;;;;13.95;3.38;;;;;;;14.31;100.00;102144.56;4901183;29;20040;-79
2023/05/24 07:58:42;;;;;;;18.27;3.35;;;;;;;14.86;100.00;102142.31;4935924;29;20499;-79
2023/05/24 08:01:08;;;;;;;17.05;3.83;;;;;;;14.42;100.00;102146.53;4923534;29;20506;-79
2023/05/24 08:03:33;;;;;;;16.48;4.28;;;;;;;14.68;100.00;102134.47;4917826;29;20048;-79
2023/05/24 08:05:59;;;;;;;22.38;3.53;;;;;;;14.03;100.00;102131.97;4898695;29;20048;-79
2023/05/24 08:08:24;;;;;;;18.58;4.15;;;;;;;13.75;100.00;102132.09;4908332;29;20036;-79
2023/05/24 08:10:50;;;;;;;15.63;3.83;;;;;;;14.11;100.00;102133.16;4903397;29;20047;-79
2023/05/24 08:13:16;;;;;;;13.52;4.15;;;;;;;14.97;100.00;102133.22;4934835;29;20098;-79
2023/05/24 08:15:41;;;;;;;16.23;4.00;;;;;;;14.33;100.00;102131.56;4934887;29;20035;-79
2023/05/24 08:18:08;;;;;;;20.80;3.40;;;;;;;14.11;100.00;102135.91;4894375;29;20480;-79
2023/05/24 08:20:34;;;;;;;15.70;3.28;;;;;;;14.13;100.00;102122.03;4934855;29;20576;-79
2023/05/24 08:23:00;;;;;;;17.10;3.45;;;;;;;13.97;100.00;102127.81;4886585;29;20122;-78
2023/05/24 08:25:26;;;;;;;12.98;3.10;;;;;;;13.88;100.00;102131.22;4907255;29;20491;-80
2023/05/24 08:27:51;;;;;;;19.15;3.67;;;;;;;13.58;100.00;102125.06;4930823;29;20543;-78
2023/05/24 08:30:17;;;;;;;15.73;2.97;;;;;;;13.90;100.00;102132.84;4909885;29;20122;-78
2023/05/24 08:32:42;;;;;;;18.80;3.55;;;;;;;13.81;100.00;102121.63;4902684;29;20388;-78
2023/05/24 08:35:08;;;;;;;15.20;3.40;;;;;;;13.78;100.00;102123.63;4879209;29;20031;-79
2023/05/24 08:37:33;;;;;;;15.65;3.70;;;;;;;13.62;100.00;102128.47;4911410;29;20044;-78
2023/05/24 08:39:58;;;;;;;14.27;3.35;;;;;;;13.87;100.00;102127.59;4935061;29;20459;-78
2023/05/24 08:42:24;;;;;;;12.95;3.38;;;;;;;14.63;100.00;102131.16;4934356;29;20111;-79
2023/05/24 08:45:02;;;;;;;12.30;2.72;;;;;;;14.49;100.00;102126.69;4942698;29;20094;-78
2023/05/24 08:47:30;;;;;;;14.57;3.47;;;;;;;15.01;98.92;102130.09;4937555;29;20562;-80
2023/05/24 08:49:59;;;;;;;17.00;3.67;;;;;;;14.94;97.83;102109.53;4920158;29;20040;-78
2023/05/24 08:52:26;;;;;;;18.48;3.15;;;;;;;16.09;93.44;102128.97;4899750;29;20126;-80
2023/05/24 08:54:52;;;;;;;10.18;2.20;;;;;;;16.82;79.88;102132.09;4886630;29;20183;-78
2023/05/24 08:57:18;;;;;;;13.68;3.03;;;;;;;15.94;85.99;102120.94;4896894;29;20063;-79
2023/05/24 08:59:43;;;;;;;19.20;2.95;;;;;;;15.96;86.66;102118.03;4934713;29;20043;-78
2023/05/24 09:02:14;;;;;;;11.00;2.97;;;;;;;15.76;83.62;102134.34;4936891;29;20047;-79
2023/05/24 09:04:40;;;;;;;10.02;2.70;;;;;;;15.24;86.60;102127.44;4922576;29;20040;-78
2023/05/24 09:07:11;;;;;;;18.27;2.90;;;;;;;15.18;88.41;102127.91;4902299;29;20046;-79
2023/05/24 09:09:46;;;;;;;18.80;3.70;;;;;;;16.39;83.24;102130.19;4918090;29;20046;-78
2023/05/24 09:12:16;;;;;;;14.90;3.15;;;;;;;15.58;84.95;102127.53;4916969;29;20027;-79
2023/05/24 09:14:45;;;;;;;18.08;3.17;;;;;;;15.37;84.50;102121.81;4935021;29;20035;-79
2023/05/24 09:17:14;;;;;;;10.02;2.67;;;;;;;15.52;86.75;102120.59;4902519;29;20131;-79
2023/05/24 09:19:43;;;;;;;16.75;2.67;;;;;;;15.29;86.57;102116.03;4902321;29;20047;-79
2023/05/24 09:22:09;;;;;;;9.27;2.55;;;;;;;15.46;89.97;102110.03;4937087;29;20023;-79
2023/05/24 09:24:42;;;;;;;11.00;2.85;;;;;;;16.45;85.64;102107.56;4906997;29;20043;-79
2023/05/24 09:27:08;;;;;;;11.23;2.50;;;;;;;17.01;83.18;102107.38;4890842;29;20118;-79
2023/05/24 09:29:37;;;;;;;11.30;2.80;;;;;;;17.32;76.49;102104.72;4911810;29;20118;-79
2023/05/24 09:32:03;;;;;;;13.50;3.35;;;;;;;17.43;72.61;102100.97;4941110;29;20166;-79
2023/05/24 09:34:37;;;;;;;11.18;2.67;;;;;;;17.60;76.31;102094.84;4905598;29;20028;-79
2023/05/24 09:37:04;;;;;;;17.20;2.80;;;;;;;17.92;74.63;102095.75;4898749;29;20015;-79
2023/05/24 09:39:30;;;;;;;11.45;2.92;;;;;;;18.02;71.81;102104.09;4918457;29;20036;-79
2023/05/24 09:41:56;;;;;;;12.13;3.03;;;;;;;18.45;65.82;102114.03;4937058;29;20582;-79
2023/05/24 09:44:27;;;;;;;13.43;2.80;;;;;;;18.12;65.78;102110.59;4920182;29;20039;-79
2023/05/24 09:47:00;;;;;;;12.35;3.33;;;;;;;17.46;69.12;102100.72;4922282;29;20518;-79
2023/05/24 09:49:26;;;;;;;14.68;3.35;;;;;;;18.15;69.35;102097.31;4937990;29;20058;-80
2023/05/24 09:51:55;;;;;;;14.90;2.80;;;;;;;18.65;66.90;102096.41;4904550;29;20040;-80
2023/05/24 09:54:20;;;;;;;10.02;2.90;;;;;;;18.23;67.80;102090.19;4904721;29;20047;-80
2023/05/24 09:56:46;;;;;;;11.65;2.72;;;;;;;19.45;65.11;102096.25;4902736;29;20152;-80
2023/05/24 09:59:11;;;;;;;13.02;2.88;;;;;;;19.24;63.48;102088.97;4930474;29;20038;-80
2023/05/24 10:01:37;;;;;;;13.45;3.15;;;;;;;19.59;65.93;102083.78;4908653;29;20106;-80
2023/05/24 10:04:05;;;;;;;11.40;3.70;;;;;;;19.53;64.80;102084.38;4904312;29;20472;-80
2023/05/24 10:06:36;;;;;;;11.50;3.00;;;;;;;19.46;63.64;102086.88;4919959;29;20067;-80
2023/05/24 10:09:04;;;;;;;8.57;2.72;;;;;;;18.52;66.24;102088.34;4931209;29;20499;-80
2023/05/24 10:11:32;;;;;;;12.30;2.78;;;;;;;17.64;62.93;102088.03;4884181;29;20024;-79
2023/05/24 10:13:58;;;;;;;9.63;2.92;;;;;;;16.97;66.35;102078.25;4920539;29;20039;-79
2023/05/24 10:16:24;;;;;;;11.02;2.45;;;;;;;17.00;68.89;102093.69;4919385;29;20415;-79
2023/05/24 10:18:50;;;;;;;12.32;3.15;;;;;;;16.68;70.03;102089.03;4919811;29;20075;-79
2023/05/24 10:21:18;;;;;;;14.10;3.10;;;;;;;16.25;72.37;102085.25;4917123;29;20070;-79
2023/05/24 10:23:49;;;;;;;10.48;2.55;;;;;;;16.55;71.13;102078.13;4937326;29;20130;-79
2023/05/24 10:26:15;;;;;;;14.20;3.22;;;;;;;16.16;74.62;102077.69;4937226;29;20368;-79
2023/05/24 10:28:47;;;;;;;16.33;3.22;;;;;;;16.50;72.41;102089.56;4923226;28;20035;-79
2023/05/24 10:31:33;;;;;;;12.02;3.25;;;;;;;15.92;74.56;102091.66;4919918;29;20035;-78
2023/05/24 10:34:01;;;;;;;11.82;3.05;;;;;;;15.71;74.14;102091.50;4919498;29;20380;-78
2023/05/24 10:36:26;;;;;;;13.80;3.63;;;;;;;15.50;76.17;102091.38;4914904;29;20039;-79
2023/05/24 10:38:53;;;;;;;21.00;4.35;;;;;;;15.36;79.72;102092.47;4897626;29;20035;-79
2023/05/24 10:41:18;;;;;;;9.95;3.17;;;;;;;15.57;79.13;102104.53;4904675;29;20395;-78
2023/05/24 10:43:47;;;;;;;14.80;3.15;;;;;;;15.62;78.80;102105.03;4939869;29;20036;-78
2023/05/24 10:46:15;;;;;;;12.60;3.13;;;;;;;15.39;80.65;102101.38;4941170;29;20492;-79
2023/05/24 10:48:41;;;;;;;17.67;3.55;;;;;;;15.46;79.42;102090.72;4904153;29;20042;-79
2023/05/24 10:51:32;;;;;;;11.13;3.13;;;;;;;15.46;78.24;102096.22;4921222;29;20023;-79
2023/05/24 10:54:13;;;;;;;11.95;3.50;;;;;;;15.40;82.94;102094.00;4919334;29;20063;-79
2023/05/24 10:56:41;;;;;;;13.23;3.17;;;;;;;15.46;82.25;102101.75;4903235;29;20078;-79
2023/05/24 10:59:07;;;;;;;12.32;3.45;;;;;;;15.70;84.07;102081.47;4943978;29;20115;-79
2023/05/24 11:01:33;;;;;;;10.10;3.65;;;;;;;15.63;81.78;102084.72;4898859;29;20028;-79
2023/05/24 11:04:17;;;;;;;11.57;3.10;;;;;;;15.74;79.94;102099.53;4936757;29;20039;-78
2023/05/24 11:07:04;;;;;;;20.05;3.75;;;;;;;15.45;83.20;102094.50;4929860;29;20040;-79
2023/05/24 11:09:30;;;;;;;17.65;3.65;;;;;;;15.34;86.33;102098.09;4928107;29;20175;-79
2023/05/24 11:12:07;;;;;;;14.57;3.53;;;;;;;15.70;83.65;102092.50;4935705;29;20035;-80
2023/05/24 11:14:38;;;;;;;23.70;3.97;;;;;;;15.71;83.62;102088.72;4918936;29;20489;-79
2023/05/24 11:17:05;;;;;;;14.05;3.30;;;;;;;15.45;85.00;102091.72;4937048;29;20074;-79
2023/05/24 11:19:43;;;;;;;12.15;3.30;;;;;;;15.21;84.74;102091.78;4919218;29;20403;-79
2023/05/24 11:22:12;;;;;;;12.90;2.95;;;;;;;15.22;85.79;102086.16;4930270;29;20095;-79
2023/05/24 11:24:40;;;;;;;17.10;3.45;;;;;;;15.25;83.82;102087.81;4935914;29;20394;-79
2023/05/24 11:27:13;;;;;;;14.82;3.72;;;;;;;15.31;85.32;102080.91;4919726;29;20032;-80